createdAt,value
2018-04-25T00:01:31.620Z,83.76
2018-04-25T00:03:59.933Z,83.97
2018-04-25T00:06:28.260Z,84.89
2018-04-25T00:08:56.582Z,84.12
2018-04-25T00:11:24.899Z,83.85
2018-04-25T00:13:53.214Z,84.16
2018-04-25T00:16:21.548Z,84.17
2018-04-25T00:18:49.854Z,84.37
2018-04-25T00:21:18.168Z,84.27
2018-04-25T00:23:46.512Z,84.91
2018-04-25T00:26:14.829Z,85.12
2018-04-25T00:28:43.148Z,84.73
2018-04-25T00:31:11.498Z,84.84
2018-04-25T00:33:39.809Z,84.70
2018-04-25T00:36:08.119Z,84.54
2018-04-25T00:38:36.516Z,84.69
2018-04-25T00:41:04.847Z,84.46
2018-04-25T00:43:33.160Z,84.36
2018-04-25T00:46:01.475Z,84.20
2018-04-25T00:48:29.787Z,85.29
2018-04-25T00:50:58.147Z,84.92
2018-04-25T00:53:26.453Z,85.30
2018-04-25T00:55:54.775Z,84.74
2018-04-25T00:58:23.082Z,85.14
2018-04-25T01:00:52.322Z,85.08
2018-04-25T01:03:20.645Z,84.57
2018-04-25T01:05:48.968Z,84.81
2018-04-25T01:08:17.292Z,85.15
2018-04-25T01:10:45.623Z,85.03
2018-04-25T01:13:13.918Z,84.87
2018-04-25T01:15:42.236Z,83.87
2018-04-25T01:18:10.565Z,83.88
2018-04-25T01:20:38.908Z,82.96
2018-04-25T01:23:07.909Z,83.01
2018-04-25T01:25:40.162Z,81.93
2018-04-25T01:28:09.393Z,81.99
2018-04-25T01:30:48.293Z,82.10
2018-04-25T01:33:23.058Z,81.62
2018-04-25T01:35:54.911Z,80.57
2018-04-25T01:38:23.229Z,80.95
2018-04-25T01:40:51.569Z,80.58
2018-04-25T01:43:20.796Z,79.13
2018-04-25T01:49:01.673Z,78.83
2018-04-25T01:51:41.855Z,79.32
2018-04-25T01:54:22.034Z,79.07
2018-04-25T01:57:03.134Z,78.94
2018-04-25T01:59:44.001Z,78.75
2018-04-25T02:02:11.995Z,78.61
2018-04-25T02:04:40.440Z,78.34
2018-04-25T02:07:08.756Z,78.30
2018-04-25T02:09:37.082Z,78.44
2018-04-25T02:12:05.414Z,78.55
2018-04-25T02:14:33.885Z,77.57
2018-04-25T02:17:02.636Z,77.57
2018-04-25T02:19:31.816Z,77.54
2018-04-25T02:22:00.152Z,77.74
2018-04-25T02:24:28.493Z,78.63
2018-04-25T02:26:57.349Z,78.31
2018-04-25T02:29:26.274Z,77.76
2018-04-25T02:31:54.594Z,78.20
2018-04-25T02:34:23.033Z,78.10
2018-04-25T02:36:51.422Z,77.23
2018-04-25T02:39:19.815Z,77.12
2018-04-25T02:41:48.202Z,77.00
2018-04-25T02:44:16.523Z,76.57
2018-04-25T02:46:44.840Z,75.99
2018-04-25T02:49:13.178Z,75.70
2018-04-25T02:51:41.490Z,76.23
2018-04-25T02:54:09.867Z,76.16
2018-04-25T02:56:38.395Z,75.57
2018-04-25T02:59:06.743Z,75.64
2018-04-25T03:01:35.119Z,74.81
2018-04-25T03:04:03.450Z,74.32
2018-04-25T03:06:31.762Z,73.86
2018-04-25T03:09:00.105Z,73.77
2018-04-25T03:11:28.492Z,73.56
2018-04-25T03:13:56.902Z,73.07
2018-04-25T03:16:25.212Z,72.77
2018-04-25T03:18:53.529Z,72.60
2018-04-25T03:21:21.847Z,72.59
2018-04-25T03:23:50.248Z,72.58
2018-04-25T03:26:18.654Z,72.48
2018-04-25T03:28:47.044Z,71.93
2018-04-25T03:31:15.439Z,71.29
2018-04-25T03:33:43.779Z,71.70
2018-04-25T03:36:12.119Z,71.88
2018-04-25T03:38:40.467Z,71.28
2018-04-25T03:41:08.827Z,70.74
2018-04-25T03:43:37.139Z,70.81
2018-04-25T03:46:05.482Z,71.30
2018-04-25T03:48:33.794Z,71.18
2018-04-25T03:51:02.167Z,70.28
2018-04-25T03:53:30.489Z,70.93
2018-04-25T03:55:58.809Z,76.41
2018-04-25T03:58:27.141Z,77.01
2018-04-25T04:00:55.531Z,71.65
2018-04-25T04:03:23.841Z,71.52
2018-04-25T04:05:52.940Z,71.26
2018-04-25T04:08:21.256Z,70.13
2018-04-25T04:10:50.543Z,70.02
2018-04-25T04:13:20.124Z,69.85
2018-04-25T04:15:48.424Z,69.27
2018-04-25T04:18:16.745Z,67.82
2018-04-25T04:20:45.095Z,68.69
2018-04-25T04:23:13.441Z,68.75
2018-04-25T04:25:41.836Z,68.91
2018-04-25T04:28:10.216Z,67.81
2018-04-25T04:30:38.544Z,68.35
2018-04-25T04:33:06.886Z,68.75
2018-04-25T04:35:36.793Z,69.99
2018-04-25T04:38:05.120Z,72.20
2018-04-25T04:40:34.418Z,71.42
2018-04-25T04:43:03.022Z,72.30
2018-04-25T04:45:31.428Z,72.62
2018-04-25T04:47:59.745Z,73.29
2018-04-25T04:50:28.070Z,75.39
2018-04-25T04:52:56.511Z,72.64
2018-04-25T04:55:24.911Z,73.33
2018-04-25T04:57:53.757Z,72.02
2018-04-25T05:00:22.153Z,71.93
2018-04-25T05:02:50.502Z,71.10
2018-04-25T05:05:18.839Z,71.52
2018-04-25T05:07:47.159Z,70.61
2018-04-25T05:10:15.489Z,67.46
2018-04-25T05:12:43.918Z,65.87
2018-04-25T05:15:12.273Z,69.06
2018-04-25T05:17:40.582Z,66.05
2018-04-25T05:20:08.907Z,67.19
2018-04-25T05:22:37.310Z,69.22
2018-04-25T05:25:05.733Z,70.53
2018-04-25T05:27:34.050Z,66.83
2018-04-25T05:30:02.403Z,66.99
2018-04-25T05:32:30.736Z,65.81
2018-04-25T05:34:59.626Z,64.69
2018-04-25T05:37:27.951Z,62.82
2018-04-25T05:39:56.282Z,60.59
2018-04-25T05:42:24.616Z,57.50
2018-04-25T05:44:52.914Z,53.37
2018-04-25T05:47:21.244Z,52.00
2018-04-25T05:49:49.688Z,50.30
2018-04-25T05:52:18.042Z,49.88
2018-04-25T05:54:46.436Z,48.82
2018-04-25T05:57:14.828Z,48.63
2018-04-25T05:59:43.216Z,48.01
2018-04-25T06:02:11.578Z,46.97
2018-04-25T06:04:39.921Z,45.43
2018-04-25T06:07:10.527Z,43.51
2018-04-25T06:09:38.797Z,45.03
2018-04-25T06:12:07.230Z,43.86
2018-04-25T06:14:35.473Z,45.80
2018-04-25T06:17:03.807Z,45.82
2018-04-25T06:19:32.129Z,47.34
2018-04-25T06:22:00.465Z,48.10
2018-04-25T06:24:28.780Z,46.83
2018-04-25T06:26:57.180Z,44.57
2018-04-25T06:29:25.504Z,41.14
2018-04-25T06:31:53.812Z,40.15
2018-04-25T06:34:22.130Z,38.37
2018-04-25T06:36:50.561Z,38.49
2018-04-25T06:39:18.900Z,35.79
2018-04-25T06:41:47.202Z,37.42
2018-04-25T06:44:15.518Z,38.04
2018-04-25T06:46:43.885Z,38.88
2018-04-25T06:49:12.210Z,42.93
2018-04-25T06:51:40.527Z,45.34
2018-04-25T06:54:08.847Z,46.84
2018-04-25T06:56:37.164Z,47.11
2018-04-25T06:59:05.516Z,47.70
2018-04-25T07:01:33.823Z,46.65
2018-04-25T07:04:03.368Z,45.67
2018-04-25T07:06:31.677Z,44.69
2018-04-25T07:09:00.059Z,46.49
2018-04-25T07:11:28.366Z,46.89
2018-04-25T07:13:56.682Z,48.57
2018-04-25T07:16:24.993Z,49.62
2018-04-25T07:18:53.314Z,50.50
2018-04-25T07:21:21.720Z,51.05
2018-04-25T07:23:50.084Z,53.53
2018-04-25T07:26:18.408Z,52.78
2018-04-25T07:28:46.816Z,53.65
2018-04-25T07:31:15.304Z,52.71
2018-04-25T07:33:43.620Z,52.74
2018-04-25T07:36:11.957Z,53.95
2018-04-25T07:38:40.273Z,53.24
2018-04-25T07:41:08.647Z,53.16
2018-04-25T07:43:36.956Z,54.23
2018-04-25T07:46:05.346Z,52.21
2018-04-25T07:48:34.684Z,52.41
2018-04-25T07:51:03.040Z,50.33
2018-04-25T07:53:31.371Z,49.94
2018-04-25T07:55:59.715Z,48.98
2018-04-25T07:58:28.109Z,48.62
2018-04-25T08:00:56.500Z,47.35
2018-04-25T08:03:24.834Z,48.57
2018-04-25T08:05:53.213Z,48.65
2018-04-25T08:08:21.578Z,48.03
2018-04-25T08:10:49.910Z,48.91
2018-04-25T08:13:30.107Z,48.71
2018-04-25T08:16:10.336Z,48.50
2018-04-25T08:18:50.441Z,47.25
2018-04-25T08:21:30.663Z,45.66
2018-04-25T08:23:59.003Z,44.36
2018-04-25T08:26:27.344Z,44.59
2018-04-25T08:28:55.656Z,45.42
2018-04-25T08:31:24.030Z,46.35
2018-04-25T08:33:52.365Z,47.03
2018-04-25T08:36:20.716Z,46.10
2018-04-25T08:38:49.139Z,46.78
2018-04-25T08:41:17.532Z,45.35
2018-04-25T08:43:45.852Z,45.59
2018-04-25T08:46:14.284Z,45.99
2018-04-25T08:48:42.688Z,45.25
2018-04-25T08:51:11.708Z,44.77
2018-04-25T08:53:40.054Z,44.23
2018-04-25T08:56:08.465Z,43.61
2018-04-25T08:58:36.861Z,43.09
2018-04-25T09:01:05.212Z,42.99
2018-04-25T09:03:33.524Z,42.71
2018-04-25T09:06:02.515Z,42.85
2018-04-25T09:08:30.832Z,41.44
2018-04-25T09:10:59.151Z,41.96
2018-04-25T09:13:27.467Z,42.07
2018-04-25T09:15:55.811Z,42.38
2018-04-25T09:18:24.195Z,43.55
2018-04-25T09:20:52.592Z,43.89
2018-04-25T09:23:20.901Z,44.24
2018-04-25T09:25:49.260Z,44.57
2018-04-25T09:28:17.696Z,44.68
2018-04-25T09:30:46.046Z,44.43
2018-04-25T09:33:14.421Z,45.60
2018-04-25T09:38:17.369Z,42.69
2018-04-25T09:40:45.827Z,42.91
2018-04-25T09:43:14.323Z,43.65
2018-04-25T09:45:42.666Z,43.90
2018-04-25T09:48:11.000Z,45.40
2018-04-25T09:50:39.315Z,47.03
2018-04-25T09:53:07.725Z,47.88
2018-04-25T09:55:36.043Z,48.22
2018-04-25T09:58:04.420Z,46.92
2018-04-25T10:03:30.836Z,47.68
2018-04-25T10:05:59.141Z,47.85
2018-04-25T10:08:27.468Z,48.01
2018-04-25T10:10:55.861Z,48.88
2018-04-25T10:13:24.128Z,49.11
2018-04-25T10:15:52.448Z,47.93
2018-04-25T10:18:20.806Z,47.87
2018-04-25T10:20:49.453Z,48.26
2018-04-25T10:23:17.828Z,47.17
2018-04-25T10:25:46.752Z,47.48
2018-04-25T10:28:15.035Z,45.71
2018-04-25T10:30:43.405Z,45.30
2018-04-25T10:33:11.751Z,43.28
2018-04-25T10:35:41.397Z,42.22
2018-04-25T10:38:09.712Z,41.28
2018-04-25T10:40:38.056Z,38.85
2018-04-25T10:43:06.392Z,38.59
2018-04-25T10:45:34.701Z,39.24
2018-04-25T10:48:03.033Z,39.22
2018-04-25T10:50:31.355Z,39.71
2018-04-25T10:52:59.671Z,41.07
2018-04-25T10:55:28.068Z,41.87
2018-04-25T10:57:56.325Z,42.53
2018-04-25T11:00:24.663Z,42.25
2018-04-25T11:02:52.977Z,42.30
2018-04-25T11:05:21.291Z,41.97
2018-04-25T11:07:49.615Z,40.75
2018-04-25T11:10:17.947Z,40.48
2018-04-25T11:12:46.293Z,38.84
2018-04-25T11:15:14.638Z,39.74
2018-04-25T11:17:42.955Z,40.47
2018-04-25T11:20:12.267Z,40.18
2018-04-25T11:22:40.589Z,39.67
2018-04-25T11:25:08.929Z,39.90
2018-04-25T11:27:37.252Z,40.16
2018-04-25T11:30:05.563Z,37.64
2018-04-25T11:32:33.875Z,38.23
2018-04-25T11:35:02.194Z,39.13
2018-04-25T11:37:30.533Z,39.72
2018-04-25T11:39:58.851Z,40.38
2018-04-25T11:42:28.198Z,39.80
2018-04-25T11:44:56.524Z,37.94
2018-04-25T11:47:24.862Z,37.99
2018-04-25T11:49:53.185Z,38.54
2018-04-25T11:52:21.514Z,36.31
2018-04-25T11:54:49.843Z,36.48
2018-04-25T11:57:18.152Z,37.97
2018-04-25T11:59:46.602Z,38.18
2018-04-25T12:02:14.851Z,38.96
2018-04-25T12:04:43.176Z,40.19
2018-04-25T12:09:46.088Z,40.07
2018-04-25T12:12:14.474Z,41.23
2018-04-25T12:14:42.922Z,41.55
2018-04-25T12:17:11.224Z,42.31
2018-04-25T12:19:39.569Z,42.55
2018-04-25T12:22:07.888Z,42.65
2018-04-25T12:24:36.222Z,43.72
2018-04-25T12:27:04.530Z,44.18
2018-04-25T12:29:32.845Z,43.12
2018-04-25T12:32:01.169Z,44.23
2018-04-25T12:34:30.622Z,45.20
2018-04-25T12:36:58.935Z,46.05
2018-04-25T12:39:27.261Z,48.83
2018-04-25T12:41:55.588Z,48.84
2018-04-25T12:44:23.925Z,49.76
2018-04-25T12:46:52.239Z,50.00
2018-04-25T12:49:20.560Z,51.35
2018-04-25T12:51:48.892Z,51.09
2018-04-25T12:54:17.241Z,51.65
2018-04-25T12:56:45.564Z,52.59
2018-04-25T12:59:13.906Z,58.52
2018-04-25T13:01:42.296Z,66.16
2018-04-25T13:04:10.547Z,70.29
2018-04-25T13:06:38.875Z,70.61
2018-04-25T13:09:07.278Z,73.87
2018-04-25T13:11:35.533Z,73.44
2018-04-25T13:14:03.873Z,74.67
2018-04-25T13:16:32.187Z,73.88
2018-04-25T13:19:00.533Z,71.50
2018-04-25T13:21:28.873Z,66.13
2018-04-25T13:23:57.173Z,64.53
2018-04-25T13:26:25.500Z,58.88
2018-04-25T13:28:53.856Z,55.14
2018-04-25T13:31:22.135Z,57.25
2018-04-25T13:33:50.462Z,58.42
2018-04-25T13:36:18.798Z,59.37
2018-04-25T13:38:47.114Z,57.34
2018-04-25T13:41:15.440Z,54.99
2018-04-25T13:43:43.767Z,54.05
2018-04-25T13:46:12.088Z,49.41
2018-04-25T13:48:40.409Z,49.47
2018-04-25T13:51:08.749Z,51.61
2018-04-25T13:53:37.055Z,50.51
2018-04-25T13:56:05.372Z,53.25
2018-04-25T13:58:33.705Z,52.86
2018-04-25T14:01:02.030Z,51.39
2018-04-25T14:03:30.377Z,50.46
2018-04-25T14:05:58.677Z,50.27
2018-04-25T14:08:27.001Z,46.78
2018-04-25T14:10:55.328Z,46.47
2018-04-25T14:13:23.639Z,46.73
2018-04-25T14:15:51.977Z,46.95
2018-04-25T14:18:20.294Z,46.75
2018-04-25T14:20:48.686Z,48.90
2018-04-25T14:23:17.056Z,46.44
2018-04-25T14:25:45.375Z,46.89
2018-04-25T14:28:13.705Z,46.78
2018-04-25T14:30:42.066Z,46.67
2018-04-25T14:33:10.446Z,45.99
2018-04-25T14:35:38.759Z,47.17
2018-04-25T14:38:07.092Z,51.24
2018-04-25T14:40:35.425Z,50.91
2018-04-25T14:43:03.729Z,54.79
2018-04-25T14:45:32.075Z,54.01
2018-04-25T14:48:00.359Z,56.80
2018-04-25T14:50:28.685Z,63.78
2018-04-25T14:52:57.001Z,67.88
2018-04-25T14:55:25.315Z,71.57
2018-04-25T14:57:53.638Z,73.56
2018-04-25T15:00:21.956Z,74.45
2018-04-25T15:02:50.288Z,71.41
2018-04-25T15:05:18.656Z,74.17
2018-04-25T15:07:46.988Z,77.04
2018-04-25T15:10:15.337Z,77.70
2018-04-25T15:12:43.644Z,78.02
2018-04-25T15:15:12.000Z,79.01
2018-04-25T15:17:40.308Z,78.29
2018-04-25T15:20:08.652Z,76.25
2018-04-25T15:22:36.932Z,77.04
2018-04-25T15:25:05.252Z,77.68
2018-04-25T15:27:33.570Z,78.99
2018-04-25T15:30:01.900Z,78.08
2018-04-25T15:32:31.210Z,74.93
2018-04-25T15:34:59.529Z,74.44
2018-04-25T15:37:27.859Z,75.47
2018-04-25T15:39:56.360Z,74.62
2018-04-25T15:42:24.712Z,74.99
2018-04-25T15:44:54.157Z,74.03
2018-04-25T15:47:22.474Z,75.11
2018-04-25T15:49:50.858Z,74.50
2018-04-25T15:52:19.280Z,75.02
2018-04-25T15:54:47.612Z,74.17
2018-04-25T15:57:15.940Z,74.43
2018-04-25T15:59:44.271Z,75.48
2018-04-25T16:02:12.675Z,75.72
2018-04-25T16:04:41.011Z,76.02
2018-04-25T16:07:09.381Z,76.08
2018-04-25T16:09:37.709Z,75.89
2018-04-25T16:12:06.115Z,75.63
2018-04-25T16:14:34.467Z,75.13
2018-04-25T16:17:02.885Z,75.38
2018-04-25T16:19:31.154Z,72.73
2018-04-25T16:21:59.514Z,74.37
2018-04-25T16:24:27.843Z,74.92
2018-04-25T16:26:56.184Z,75.84
2018-04-25T16:29:24.512Z,75.38
2018-04-25T16:31:52.840Z,74.61
2018-04-25T16:34:21.160Z,74.71
2018-04-25T16:36:49.495Z,77.22
2018-04-25T16:39:17.800Z,81.19
2018-04-25T16:41:46.126Z,81.65
2018-04-25T16:44:14.450Z,84.17
2018-04-25T16:46:49.623Z,85.72
2018-04-25T16:49:17.953Z,86.23
2018-04-25T16:51:46.283Z,87.39
2018-04-25T16:54:15.820Z,87.60
2018-04-25T16:56:44.107Z,88.40
2018-04-25T16:59:12.461Z,88.75
2018-04-25T17:01:40.804Z,89.04
2018-04-25T17:04:09.165Z,90.55
2018-04-25T17:06:37.539Z,90.54
2018-04-25T17:09:05.827Z,90.06
2018-04-25T17:11:34.224Z,89.37
2018-04-25T17:14:02.556Z,89.72
2018-04-25T17:16:30.912Z,90.76
2018-04-25T17:18:59.286Z,90.86
2018-04-25T17:21:27.637Z,91.06
2018-04-25T17:23:56.088Z,90.43
2018-04-25T17:26:24.432Z,90.57
2018-04-25T17:28:52.801Z,90.82
2018-04-25T17:31:21.147Z,90.68
2018-04-25T17:33:49.475Z,91.65
2018-04-25T17:36:17.832Z,90.72
2018-04-25T17:38:46.165Z,91.45
2018-04-25T17:41:14.497Z,91.42
2018-04-25T17:43:42.913Z,91.39
2018-04-25T17:46:11.250Z,91.19
2018-04-25T17:48:39.594Z,91.47
2018-04-25T17:51:07.945Z,91.49
2018-04-25T17:53:36.315Z,90.81
2018-04-25T17:56:04.642Z,89.64
2018-04-25T17:58:33.043Z,89.82
2018-04-25T18:01:01.404Z,89.97
2018-04-25T18:03:29.776Z,88.18
2018-04-25T18:05:58.091Z,88.80
2018-04-25T18:08:26.440Z,89.30
2018-04-25T18:10:54.767Z,89.75
2018-04-25T18:13:23.114Z,89.76
2018-04-25T18:15:51.448Z,90.42
2018-04-25T18:18:20.199Z,90.40
2018-04-25T18:20:48.533Z,90.46
2018-04-25T18:23:16.905Z,90.66
2018-04-25T18:25:45.233Z,91.32
2018-04-25T18:28:13.583Z,91.08
2018-04-25T18:30:43.091Z,91.43
2018-04-25T18:33:11.441Z,91.28
2018-04-25T18:35:39.773Z,91.09
2018-04-25T18:38:08.124Z,91.54
2018-04-25T18:40:36.529Z,92.26
2018-04-25T18:43:04.875Z,92.43
2018-04-25T18:45:33.293Z,92.27
2018-04-25T18:48:01.621Z,92.30
2018-04-25T18:50:29.988Z,92.27
2018-04-25T18:52:58.349Z,92.38
2018-04-25T18:55:26.707Z,92.32
2018-04-25T18:57:55.056Z,92.34
2018-04-25T19:00:23.391Z,92.52
2018-04-25T19:02:51.743Z,92.64
2018-04-25T19:05:20.140Z,93.12
2018-04-25T19:07:48.452Z,92.63
2018-04-25T19:10:17.743Z,93.04
2018-04-25T19:12:47.062Z,92.86
2018-04-25T19:15:15.439Z,92.90
2018-04-25T19:17:44.383Z,92.37
2018-04-25T19:20:12.766Z,92.99
2018-04-25T19:22:41.109Z,92.93
2018-04-25T19:25:09.430Z,93.32
2018-04-25T19:27:37.803Z,93.04
2018-04-25T19:30:06.139Z,92.89
2018-04-25T19:32:34.482Z,92.71
2018-04-25T19:35:02.806Z,92.53
2018-04-25T19:37:31.177Z,93.22
2018-04-25T19:39:59.578Z,93.63
2018-04-25T19:42:27.947Z,93.72
2018-04-25T19:44:56.254Z,93.88
2018-04-25T19:47:24.612Z,93.91
2018-04-25T19:49:52.947Z,94.14
2018-04-25T19:52:21.292Z,94.21
2018-04-25T19:54:49.615Z,94.37
2018-04-25T19:57:18.021Z,94.27
2018-04-25T19:59:47.288Z,94.47
2018-04-25T20:02:15.668Z,94.46
2018-04-25T20:04:44.008Z,94.60
2018-04-25T20:07:12.357Z,94.58
2018-04-25T20:09:40.695Z,94.43
2018-04-25T20:12:09.125Z,94.70
2018-04-25T20:14:37.457Z,94.66
2018-04-25T20:17:05.821Z,94.35
2018-04-25T20:19:34.161Z,94.25
2018-04-25T20:22:02.560Z,94.46
2018-04-25T20:24:30.891Z,94.47
2018-04-25T20:26:59.240Z,94.61
2018-04-25T20:29:27.592Z,94.39
2018-04-25T20:31:55.933Z,94.40
2018-04-25T20:34:24.316Z,94.38
2018-04-25T20:36:52.668Z,94.40
2018-04-25T20:39:21.037Z,94.55
2018-04-25T20:41:49.468Z,94.51
2018-04-25T20:44:17.795Z,94.77
2018-04-25T20:46:46.209Z,94.42
2018-04-25T20:49:14.556Z,94.76
2018-04-25T20:51:42.928Z,94.86
2018-04-25T20:54:11.246Z,94.58
2018-04-25T20:56:39.577Z,94.48
2018-04-25T20:59:07.960Z,94.40
2018-04-25T21:01:36.341Z,93.94
2018-04-25T21:04:04.740Z,93.70
2018-04-25T21:06:33.063Z,92.99
2018-04-25T21:09:01.450Z,93.21
2018-04-25T21:11:29.823Z,93.37
2018-04-25T21:13:58.142Z,93.68
2018-04-25T21:16:26.502Z,93.35
2018-04-25T21:18:54.845Z,93.50
2018-04-25T21:21:23.934Z,92.68
2018-04-25T21:23:52.501Z,92.80
2018-04-25T21:26:20.809Z,93.32
2018-04-25T21:28:49.141Z,93.43
2018-04-25T21:31:17.531Z,93.78
2018-04-25T21:33:46.995Z,93.48
2018-04-25T21:36:15.345Z,94.55
2018-04-25T21:38:43.707Z,93.75
2018-04-25T21:41:12.053Z,94.34
2018-04-25T21:43:40.790Z,94.48
2018-04-25T21:46:09.176Z,95.37
2018-04-25T21:48:37.481Z,95.83
2018-04-25T21:51:05.856Z,95.91
2018-04-25T21:53:34.197Z,95.88
2018-04-25T21:56:02.537Z,95.31
2018-04-25T21:58:30.894Z,95.09
2018-04-25T22:00:59.237Z,95.60
2018-04-25T22:03:27.560Z,95.68
2018-04-25T22:05:55.899Z,95.18
2018-04-25T22:08:24.263Z,95.67
2018-04-25T22:10:52.653Z,95.98
2018-04-25T22:13:20.989Z,95.86
2018-04-25T22:15:49.336Z,95.20
2018-04-25T22:18:17.674Z,94.83
2018-04-25T22:20:46.021Z,94.11
2018-04-25T22:23:14.457Z,94.91
2018-04-25T22:25:42.707Z,95.21
2018-04-25T22:28:11.052Z,95.09
2018-04-25T22:30:39.394Z,94.62
2018-04-25T22:33:09.607Z,94.43
2018-04-25T22:35:37.935Z,94.75
2018-04-25T22:38:06.286Z,94.90
2018-04-25T22:40:34.629Z,95.13
2018-04-25T22:43:03.001Z,95.15
2018-04-25T22:45:31.358Z,94.84
2018-04-25T22:47:59.721Z,94.55
2018-04-25T22:50:28.093Z,94.98
2018-04-25T22:52:56.445Z,95.26
2018-04-25T22:55:24.777Z,95.17
2018-04-25T22:57:53.112Z,94.74
2018-04-25T23:00:21.464Z,95.28
2018-04-25T23:02:49.825Z,93.45
2018-04-25T23:05:19.312Z,93.17
2018-04-25T23:07:47.672Z,93.53
2018-04-25T23:10:15.996Z,93.68
2018-04-25T23:12:44.335Z,94.24
2018-04-25T23:15:12.674Z,94.21
2018-04-25T23:17:41.010Z,94.01
2018-04-25T23:20:09.351Z,94.58
2018-04-25T23:22:37.743Z,95.25
2018-04-25T23:25:06.167Z,94.54
2018-04-25T23:27:34.601Z,94.33
2018-04-25T23:30:02.951Z,94.05
2018-04-25T23:32:31.256Z,94.37
2018-04-25T23:34:59.605Z,95.37
2018-04-25T23:37:27.932Z,95.48
2018-04-25T23:39:56.283Z,95.67
2018-04-25T23:42:24.622Z,95.98
2018-04-25T23:44:52.975Z,96.27
2018-04-25T23:47:21.343Z,96.31
2018-04-25T23:49:49.689Z,96.45
2018-04-25T23:52:18.120Z,96.16
2018-04-25T23:54:46.445Z,96.24
2018-04-25T23:57:14.791Z,95.79
2018-04-25T23:59:43.196Z,96.27
